Time;durP1;ratioP1;P1;durP2;ratioP2;P2;SDS_P1;SDS_P2;PMS_P1;PMS_P2;Temp;Humidity;BMP_temperature;BMP_pressure;BME280_temperature;BME280_humidity;BME280_pressure;Samples;Min_cycle;Max_cycle;Signal;HPM_P1;HPM_P2
2024/04/18 00:00:31;;;;;;;1.23;0.80;;;22.90;46.40;;;;;;5430915;26;19994;-62
2024/04/18 00:02:57;;;;;;;1.40;0.77;;;22.90;46.40;;;;;;5426741;26;20005;-62
2024/04/18 00:05:22;;;;;;;1.70;0.88;;;22.90;46.40;;;;;;5425353;26;20455;-62
2024/04/18 00:07:48;;;;;;;2.22;0.90;;;22.80;46.40;;;;;;5429510;26;20006;-61
2024/04/18 00:10:14;;;;;;;1.67;0.80;;;22.80;46.40;;;;;;5430203;26;20003;-61
2024/04/18 00:12:40;;;;;;;2.03;0.80;;;22.80;46.40;;;;;;5428640;26;20006;-61
2024/04/18 00:15:09;;;;;;;1.38;0.80;;;22.80;46.40;;;;;;5426409;26;19999;-62
2024/04/18 00:17:36;;;;;;;2.88;1.17;;;22.80;46.40;;;;;;5425469;26;20000;-62
2024/04/18 00:20:02;;;;;;;1.23;0.70;;;22.70;46.40;;;;;;5426017;26;20075;-62
2024/04/18 00:22:27;;;;;;;1.70;0.90;;;22.70;46.40;;;;;;5431593;26;20013;-61
2024/04/18 00:24:53;;;;;;;1.63;0.70;;;22.70;46.40;;;;;;5429945;26;20004;-62
2024/04/18 00:27:19;;;;;;;1.90;1.00;;;22.70;46.40;;;;;;5426297;26;19999;-61
2024/04/18 00:29:45;;;;;;;1.20;0.70;;;22.70;46.40;;;;;;5426562;26;20447;-62
2024/04/18 00:32:11;;;;;;;1.38;0.82;;;22.70;46.40;;;;;;5430677;26;20003;-62
2024/04/18 00:34:36;;;;;;;1.65;0.75;;;22.60;46.30;;;;;;5422268;26;20000;-63
2024/04/18 00:37:02;;;;;;;1.27;0.70;;;22.70;46.40;;;;;;5429965;26;19994;-62
2024/04/18 00:39:28;;;;;;;1.85;0.90;;;22.60;46.30;;;;;;5429424;26;19998;-61
2024/04/18 00:41:54;;;;;;;2.28;0.82;;;22.70;46.40;;;;;;5428235;26;19996;-62
2024/04/18 00:44:21;;;;;;;1.30;0.80;;;22.60;46.40;;;;;;5432813;26;19995;-62
2024/04/18 00:46:48;;;;;;;1.88;0.88;;;22.60;46.40;;;;;;5428772;26;19999;-61
2024/04/18 00:49:15;;;;;;;1.17;0.80;;;22.60;46.90;;;;;;5423845;26;20786;-62
2024/04/18 00:51:41;;;;;;;1.35;0.75;;;22.60;46.40;;;;;;5427176;26;20027;-61
2024/04/18 00:54:08;;;;;;;0.98;0.70;;;22.60;46.40;;;;;;5426511;26;20444;-61
2024/04/18 00:56:34;;;;;;;1.33;0.77;;;22.50;46.30;;;;;;5423220;26;19995;-62
2024/04/18 00:59:02;;;;;;;1.38;0.90;;;22.50;46.40;;;;;;5426510;26;20009;-62
2024/04/18 01:01:29;;;;;;;1.75;0.80;;;22.50;46.40;;;;;;5428352;26;20014;-61
2024/04/18 01:03:56;;;;;;;1.40;0.70;;;22.50;46.40;;;;;;5427258;26;20014;-61
2024/04/18 01:06:22;;;;;;;1.50;0.70;;;22.50;46.40;;;;;;5428318;26;20446;-62
2024/04/18 01:08:48;;;;;;;1.23;0.80;;;22.50;46.40;;;;;;5426377;26;19995;-62
2024/04/18 01:11:13;;;;;;;1.08;0.60;;;22.50;46.40;;;;;;5431718;26;20417;-62
2024/04/18 01:13:39;;;;;;;1.27;0.70;;;22.50;46.40;;;;;;5426138;26;20007;-62
2024/04/18 01:16:05;;;;;;;1.20;0.70;;;22.40;46.40;;;;;;5426700;26;20036;-61
2024/04/18 01:18:35;;;;;;;0.82;0.65;;;22.40;46.40;;;;;;5430859;26;20076;-62
2024/04/18 01:21:01;;;;;;;1.20;0.75;;;22.40;46.40;;;;;;5429198;26;19998;-62
2024/04/18 01:23:27;;;;;;;1.25;0.80;;;22.40;47.00;;;;;;5423046;26;19999;-62
2024/04/18 01:25:53;;;;;;;1.38;0.80;;;22.40;46.40;;;;;;5427490;26;20022;-62
2024/04/18 01:28:19;;;;;;;1.48;0.70;;;22.40;46.40;;;;;;5427628;26;20004;-62
2024/04/18 01:30:45;;;;;;;1.40;0.80;;;22.30;46.40;;;;;;5428688;26;19995;-61
2024/04/18 01:33:11;;;;;;;1.92;0.85;;;22.40;46.50;;;;;;5425561;26;20009;-62
2024/04/18 01:35:37;;;;;;;1.30;0.70;;;22.30;46.40;;;;;;5424763;26;20015;-62
2024/04/18 01:38:03;;;;;;;1.38;0.90;;;22.30;46.40;;;;;;5428753;26;19995;-61
2024/04/18 01:40:29;;;;;;;1.33;0.80;;;22.30;46.40;;;;;;5430027;26;19999;-62
2024/04/18 01:42:54;;;;;;;1.55;0.82;;;22.30;46.50;;;;;;5429659;26;20007;-61
2024/04/18 01:45:20;;;;;;;0.73;0.60;;;22.30;46.50;;;;;;5430888;26;20059;-62
2024/04/18 01:47:46;;;;;;;1.50;0.70;;;22.30;46.50;;;;;;5431139;26;20010;-61
2024/04/18 01:50:12;;;;;;;1.08;0.70;;;22.20;46.50;;;;;;5429749;26;19999;-61
2024/04/18 01:52:38;;;;;;;1.40;0.75;;;22.30;46.50;;;;;;5432556;26;19991;-61
2024/04/18 01:55:05;;;;;;;1.30;0.70;;;22.20;46.50;;;;;;5432439;26;20031;-61
2024/04/18 01:57:31;;;;;;;1.33;0.70;;;22.20;46.50;;;;;;5430898;26;20001;-62
2024/04/18 01:59:56;;;;;;;1.15;0.60;;;22.20;46.50;;;;;;5428497;26;20004;-61
2024/04/18 02:02:24;;;;;;;1.38;0.80;;;22.20;46.50;;;;;;5427252;26;20467;-61
2024/04/18 02:04:49;;;;;;;0.80;0.70;;;22.20;46.50;;;;;;5429889;26;20036;-61
2024/04/18 02:07:15;;;;;;;1.33;0.80;;;22.20;46.50;;;;;;5430313;26;20004;-61
2024/04/18 02:09:41;;;;;;;0.73;0.60;;;22.20;46.50;;;;;;5425407;26;20344;-61
2024/04/18 02:12:07;;;;;;;2.45;0.80;;;22.20;46.50;;;;;;5430597;26;20003;-61
2024/04/18 02:14:32;;;;;;;1.77;0.90;;;22.20;46.50;;;;;;5429265;26;20003;-62
2024/04/18 02:16:58;;;;;;;1.40;0.70;;;22.20;46.50;;;;;;5428845;26;20070;-61
2024/04/18 02:19:24;;;;;;;1.33;0.80;;;22.10;46.50;;;;;;5428764;26;20343;-61
2024/04/18 02:21:50;;;;;;;1.73;0.90;;;22.10;47.00;;;;;;5427157;26;19999;-61
2024/04/18 02:24:15;;;;;;;1.10;0.60;;;22.10;46.50;;;;;;5427971;26;20030;-61
2024/04/18 02:26:42;;;;;;;1.15;0.70;;;22.10;46.50;;;;;;5432215;26;20354;-61
2024/04/18 02:29:08;;;;;;;1.13;0.60;;;22.10;46.50;;;;;;5430404;26;20013;-62
2024/04/18 02:31:34;;;;;;;1.05;0.63;;;22.10;46.50;;;;;;5430167;26;20004;-62
2024/04/18 02:33:59;;;;;;;1.00;0.70;;;22.10;46.50;;;;;;5430067;26;20082;-61
2024/04/18 02:36:25;;;;;;;0.82;0.68;;;22.00;46.50;;;;;;5425368;26;20434;-62
2024/04/18 02:38:51;;;;;;;1.10;0.60;;;22.00;47.00;;;;;;5429283;26;20005;-62
2024/04/18 02:41:17;;;;;;;2.20;0.82;;;22.00;46.50;;;;;;5430552;26;20050;-61
2024/04/18 02:43:42;;;;;;;1.60;0.77;;;22.00;46.50;;;;;;5426441;26;20011;-61
2024/04/18 02:46:08;;;;;;;0.75;0.65;;;22.00;46.50;;;;;;5432034;26;20006;-62
2024/04/18 02:48:34;;;;;;;0.90;0.60;;;22.00;46.60;;;;;;5430406;26;19994;-61
2024/04/18 02:51:00;;;;;;;1.10;0.70;;;22.00;46.60;;;;;;5428652;26;20006;-61
2024/04/18 02:53:25;;;;;;;0.60;0.60;;;22.00;46.60;;;;;;5431732;26;20505;-61
2024/04/18 02:55:51;;;;;;;1.15;0.75;;;22.00;46.60;;;;;;5429194;26;20016;-61
2024/04/18 02:58:16;;;;;;;1.10;0.70;;;21.90;46.60;;;;;;5434366;26;20003;-61
2024/04/18 03:00:42;;;;;;;1.02;0.80;;;21.90;46.60;;;;;;5427744;26;19999;-61
2024/04/18 03:03:07;;;;;;;1.00;0.70;;;21.90;46.60;;;;;;5429469;26;20425;-61
2024/04/18 03:05:33;;;;;;;1.77;0.80;;;21.90;46.60;;;;;;5426826;26;19999;-61
2024/04/18 03:07:59;;;;;;;1.10;0.70;;;21.90;46.60;;;;;;5429279;26;20475;-63
2024/04/18 03:10:24;;;;;;;1.00;0.70;;;21.90;46.60;;;;;;5430051;26;20030;-63
2024/04/18 03:12:54;;;;;;;1.42;0.70;;;21.90;46.70;;;;;;5427200;26;19999;-63
2024/04/18 03:15:22;;;;;;;;;;;21.90;46.70;;;;;;5429339;26;20343;-63
2024/04/18 03:17:54;;;;;;;0.52;0.50;;;21.80;46.60;;;;;;5431048;26;19925;-63
2024/04/18 03:20:20;;;;;;;0.82;0.70;;;21.80;46.60;;;;;;5428211;26;20046;-63
2024/04/18 03:22:46;;;;;;;0.52;0.50;;;21.90;46.70;;;;;;5429000;26;20442;-64
2024/04/18 03:25:12;;;;;;;1.27;0.80;;;21.80;46.60;;;;;;5427490;26;20039;-63
2024/04/18 03:27:37;;;;;;;0.95;0.70;;;21.80;46.70;;;;;;5428408;26;19999;-63
2024/04/18 03:30:03;;;;;;;1.08;0.70;;;21.80;46.70;;;;;;5427957;26;19999;-63
2024/04/18 03:32:29;;;;;;;1.08;0.70;;;21.80;46.60;;;;;;5427459;26;20079;-63
2024/04/18 03:34:55;;;;;;;1.25;0.80;;;21.80;46.70;;;;;;5429317;26;20359;-63
2024/04/18 03:37:20;;;;;;;0.88;0.60;;;21.80;46.70;;;;;;5425337;26;19999;-63
2024/04/18 03:39:46;;;;;;;1.13;0.70;;;21.80;46.70;;;;;;5429499;26;20027;-63
2024/04/18 03:42:12;;;;;;;1.13;0.70;;;21.80;46.70;;;;;;5428882;26;20073;-63
2024/04/18 03:44:40;;;;;;;0.73;0.60;;;21.80;46.70;;;;;;5431041;26;20011;-63
2024/04/18 03:47:05;;;;;;;1.10;0.65;;;21.80;46.70;;;;;;5428818;26;20484;-63
2024/04/18 03:49:31;;;;;;;0.80;0.60;;;21.80;46.70;;;;;;5430639;26;20003;-63
2024/04/18 03:51:57;;;;;;;1.10;0.70;;;21.70;46.70;;;;;;5424312;26;20004;-63
2024/04/18 03:54:23;;;;;;;1.20;0.70;;;21.70;46.70;;;;;;5429556;26;20010;-64
2024/04/18 03:56:48;;;;;;;0.77;0.50;;;21.80;46.80;;;;;;5430489;26;20027;-63
2024/04/18 03:59:14;;;;;;;0.82;0.70;;;21.70;46.70;;;;;;5427239;26;20010;-63
2024/04/18 04:01:40;;;;;;;0.55;0.50;;;21.70;46.70;;;;;;5427545;26;20011;-63
2024/04/18 04:04:06;;;;;;;0.75;0.60;;;21.70;46.70;;;;;;5431106;26;20016;-63
2024/04/18 04:06:32;;;;;;;0.75;0.60;;;21.70;46.80;;;;;;5424991;26;19998;-61
2024/04/18 04:08:57;;;;;;;1.40;0.80;;;21.70;46.80;;;;;;5432255;26;20014;-61
2024/04/18 04:11:24;;;;;;;0.65;0.50;;;21.70;46.80;;;;;;5425001;26;20010;-62
2024/04/18 04:13:50;;;;;;;0.60;0.50;;;21.70;46.80;;;;;;5430373;26;19999;-62
2024/04/18 04:16:17;;;;;;;1.15;0.60;;;21.70;46.90;;;;;;5426529;26;20072;-62
2024/04/18 04:18:43;;;;;;;0.60;0.52;;;21.70;46.90;;;;;;5425476;26;20102;-64
2024/04/18 04:21:08;;;;;;;0.70;0.55;;;21.70;46.90;;;;;;5426758;26;20055;-63
2024/04/18 04:23:34;;;;;;;0.85;0.70;;;21.70;46.90;;;;;;5428855;26;20126;-63
2024/04/18 04:26:00;;;;;;;2.05;0.70;;;21.70;46.90;;;;;;5428283;26;19995;-63
2024/04/18 04:28:26;;;;;;;0.70;0.50;;;21.60;46.90;;;;;;5426389;26;20041;-63
2024/04/18 04:30:51;;;;;;;0.73;0.60;;;21.60;46.90;;;;;;5426723;26;20362;-63
2024/04/18 04:33:17;;;;;;;0.77;0.60;;;21.70;47.00;;;;;;5431314;26;20007;-63
2024/04/18 04:35:43;;;;;;;0.73;0.60;;;21.60;46.90;;;;;;5424507;26;19995;-63
2024/04/18 04:38:08;;;;;;;0.85;0.60;;;21.60;46.90;;;;;;5428768;26;19998;-63
2024/04/18 04:40:34;;;;;;;0.98;0.60;;;21.60;47.50;;;;;;5427530;26;20031;-63
2024/04/18 04:42:59;;;;;;;0.95;0.60;;;21.60;47.00;;;;;;5427809;26;20149;-63
2024/04/18 04:45:25;;;;;;;0.85;0.65;;;21.60;47.00;;;;;;5425833;26;20011;-63
2024/04/18 04:47:51;;;;;;;1.10;0.77;;;21.60;47.00;;;;;;5428107;26;20011;-62
2024/04/18 04:50:17;;;;;;;0.60;0.50;;;21.60;47.00;;;;;;5427220;26;20064;-63
2024/04/18 04:52:43;;;;;;;0.93;0.60;;;21.60;47.00;;;;;;5429909;26;20404;-63
2024/04/18 04:55:09;;;;;;;1.08;0.70;;;21.60;46.90;;;;;;5426717;26;20026;-63
2024/04/18 04:57:34;;;;;;;0.93;0.60;;;21.60;46.90;;;;;;5426828;26;20027;-63
2024/04/18 05:00:00;;;;;;;1.38;0.70;;;21.60;46.90;;;;;;5428732;26;19996;-63
2024/04/18 05:02:26;;;;;;;1.08;0.63;;;21.60;47.00;;;;;;5430149;26;20007;-64
2024/04/18 05:04:52;;;;;;;0.75;0.57;;;21.60;47.00;;;;;;5429810;26;21018;-63
2024/04/18 05:07:17;;;;;;;1.48;0.75;;;21.60;47.00;;;;;;5424459;26;20007;-63
2024/04/18 05:09:43;;;;;;;0.85;0.60;;;21.60;47.10;;;;;;5429587;26;20011;-63
2024/04/18 05:12:09;;;;;;;1.73;0.80;;;21.50;47.50;;;;;;5430322;26;20014;-63
2024/04/18 05:14:34;;;;;;;1.70;0.70;;;21.50;47.10;;;;;;5429619;26;19999;-64
2024/04/18 05:17:00;;;;;;;1.13;0.70;;;21.50;47.10;;;;;;5432702;26;20000;-63
2024/04/18 05:19:25;;;;;;;0.82;0.60;;;21.50;47.20;;;;;;5430577;26;20003;-61
2024/04/18 05:21:51;;;;;;;1.25;0.70;;;21.50;47.20;;;;;;5426064;26;20455;-60
2024/04/18 05:24:17;;;;;;;0.95;0.68;;;21.50;47.30;;;;;;5427250;26;20003;-61
2024/04/18 05:26:43;;;;;;;1.05;0.68;;;21.50;47.30;;;;;;5432434;26;19999;-61
2024/04/18 05:31:52;;;;;;;0.80;0.60;;;21.50;47.40;;;;;;5427619;26;20651;-65
2024/04/18 05:34:18;;;;;;;0.95;0.63;;;21.50;47.40;;;;;;5429788;26;20004;-63
2024/04/18 05:36:45;;;;;;;1.25;0.88;;;21.50;47.30;;;;;;5427817;26;20011;-64
2024/04/18 05:39:11;;;;;;;2.28;0.60;;;21.50;47.50;;;;;;5428388;26;20015;-63
2024/04/18 05:41:37;;;;;;;1.05;0.70;;;21.50;47.70;;;;;;5430637;26;20015;-63
2024/04/18 05:44:03;;;;;;;1.40;0.65;;;21.50;48.00;;;;;;5426415;26;20046;-63
2024/04/18 05:46:29;;;;;;;0.70;0.60;;;21.50;47.90;;;;;;5428605;26;20023;-63
2024/04/18 05:48:55;;;;;;;2.30;0.82;;;21.50;47.90;;;;;;5434627;26;20023;-63
2024/04/18 05:51:21;;;;;;;1.10;0.60;;;21.50;47.80;;;;;;5429301;26;20385;-64
2024/04/18 05:53:47;;;;;;;1.48;0.70;;;21.50;47.70;;;;;;5429474;26;19995;-63
2024/04/18 05:56:12;;;;;;;1.05;0.70;;;21.50;47.70;;;;;;5427590;26;20554;-64
2024/04/18 05:58:38;;;;;;;2.40;0.70;;;21.50;47.70;;;;;;5432727;26;20006;-63
2024/04/18 06:01:05;;;;;;;1.15;0.70;;;21.50;47.60;;;;;;5433141;26;19995;-64
2024/04/18 06:03:32;;;;;;;1.38;0.77;;;21.50;47.60;;;;;;5433817;26;20069;-63
2024/04/18 06:05:59;;;;;;;1.15;0.70;;;21.50;47.60;;;;;;5429229;26;19999;-63
2024/04/18 06:08:25;;;;;;;1.20;0.77;;;21.50;47.50;;;;;;5425251;26;20002;-63
2024/04/18 06:10:51;;;;;;;1.00;0.57;;;21.50;47.50;;;;;;5429933;26;20079;-63
2024/04/18 06:13:22;;;;;;;1.45;0.80;;;21.50;47.50;;;;;;5429171;26;20031;-64
2024/04/18 06:15:48;;;;;;;3.10;0.70;;;21.50;47.50;;;;;;5427594;26;20072;-63
2024/04/18 06:18:14;;;;;;;4.10;0.82;;;21.50;47.50;;;;;;5434214;26;21038;-64
2024/04/18 06:20:47;;;;;;;1.00;0.70;;;21.50;47.50;;;;;;5431449;26;20011;-65
2024/04/18 06:23:13;;;;;;;1.33;0.80;;;21.50;47.50;;;;;;5425318;26;20022;-63
2024/04/18 06:25:40;;;;;;;1.10;0.65;;;21.40;47.90;;;;;;5435416;26;20010;-63
2024/04/18 06:28:09;;;;;;;1.30;0.63;;;21.40;47.90;;;;;;5428865;26;20075;-64
2024/04/18 06:30:34;;;;;;;1.30;0.70;;;21.40;47.40;;;;;;5431810;26;20076;-64
2024/04/18 06:33:00;;;;;;;1.17;0.70;;;21.40;47.40;;;;;;5432480;26;20463;-64
2024/04/18 06:35:26;;;;;;;0.80;0.70;;;21.40;47.40;;;;;;5427565;26;20011;-64
2024/04/18 06:37:51;;;;;;;1.60;0.80;;;21.40;47.40;;;;;;5423714;26;20010;-61
2024/04/18 06:40:20;;;;;;;0.77;0.70;;;21.40;47.40;;;;;;5431201;26;19995;-61
2024/04/18 06:42:46;;;;;;;0.90;0.70;;;21.40;47.40;;;;;;5429865;26;19999;-62
2024/04/18 06:45:12;;;;;;;1.40;0.80;;;21.40;47.40;;;;;;5428050;26;19996;-60
2024/04/18 06:47:38;;;;;;;0.90;0.70;;;21.40;47.40;;;;;;5423636;26;20000;-60
2024/04/18 06:50:04;;;;;;;2.30;0.80;;;21.40;47.40;;;;;;5428144;26;20006;-61
2024/04/18 06:52:31;;;;;;;0.77;0.70;;;21.40;47.40;;;;;;5425182;26;20010;-61
2024/04/18 06:54:56;;;;;;;0.70;0.70;;;21.40;47.40;;;;;;5426993;26;19995;-61
2024/04/18 06:57:22;;;;;;;1.60;1.10;;;21.40;47.80;;;;;;5428860;26;20069;-62
2024/04/18 06:59:48;;;;;;;1.52;0.85;;;21.40;47.40;;;;;;5431102;26;19999;-61
2024/04/18 07:02:13;;;;;;;0.98;0.70;;;21.40;47.40;;;;;;5424927;26;20474;-61
2024/04/18 07:04:39;;;;;;;1.52;0.90;;;21.40;47.40;;;;;;5426237;26;19996;-61
2024/04/18 07:07:07;;;;;;;1.13;0.70;;;21.40;47.40;;;;;;5427561;26;20451;-61
2024/04/18 07:09:33;;;;;;;1.52;0.80;;;21.40;47.40;;;;;;5425053;26;19991;-61
2024/04/18 07:12:00;;;;;;;1.13;0.80;;;21.40;47.40;;;;;;5430320;26;20006;-61
2024/04/18 07:14:25;;;;;;;1.48;0.90;;;21.40;47.30;;;;;;5429593;26;20006;-61
2024/04/18 07:16:51;;;;;;;1.42;0.80;;;21.40;47.30;;;;;;5426729;26;19990;-60
2024/04/18 07:19:17;;;;;;;1.50;1.00;;;21.30;47.30;;;;;;5428205;26;19995;-61
2024/04/18 07:21:42;;;;;;;1.27;0.70;;;21.30;47.30;;;;;;5427681;26;20000;-61
2024/04/18 07:24:08;;;;;;;1.38;0.73;;;21.30;47.40;;;;;;5430626;26;20359;-61
2024/04/18 07:26:33;;;;;;;0.80;0.70;;;21.30;47.30;;;;;;5429000;26;20003;-61
2024/04/18 07:28:59;;;;;;;1.10;0.80;;;21.30;47.40;;;;;;5426806;26;20006;-61
2024/04/18 07:31:24;;;;;;;2.03;0.90;;;21.30;47.40;;;;;;5428020;26;19999;-61
2024/04/18 07:33:50;;;;;;;1.50;1.00;;;21.30;47.40;;;;;;5430335;26;19995;-61
2024/04/18 07:36:20;;;;;;;1.73;1.15;;;21.30;47.40;;;;;;5430787;26;20027;-61
2024/04/18 07:38:46;;;;;;;1.80;0.80;;;21.30;47.40;;;;;;5428072;26;20459;-62
2024/04/18 07:41:11;;;;;;;1.52;0.90;;;21.30;47.40;;;;;;5424653;26;20011;-61
2024/04/18 07:43:37;;;;;;;0.90;0.80;;;21.30;47.40;;;;;;5426416;26;20031;-62
2024/04/18 07:46:04;;;;;;;1.63;1.00;;;21.30;47.40;;;;;;5429727;26;20010;-61
2024/04/18 07:48:29;;;;;;;3.67;1.00;;;21.30;47.40;;;;;;5423886;26;20554;-64
2024/04/18 07:50:55;;;;;;;1.52;0.95;;;21.30;47.50;;;;;;5428438;26;19994;-63
2024/04/18 07:53:20;;;;;;;2.10;1.00;;;21.30;47.50;;;;;;5425183;26;20010;-64
2024/04/18 07:55:46;;;;;;;1.70;0.90;;;21.20;47.50;;;;;;5426683;26;20346;-64
2024/04/18 07:58:12;;;;;;;1.30;0.93;;;21.20;47.50;;;;;;5425369;26;20073;-64
2024/04/18 08:00:38;;;;;;;2.03;1.20;;;21.30;47.50;;;;;;5425426;26;20047;-64
2024/04/18 08:03:03;;;;;;;2.13;1.10;;;21.30;47.50;;;;;;5426676;26;20003;-64
2024/04/18 08:05:29;;;;;;;2.67;1.10;;;21.30;47.50;;;;;;5428007;26;20007;-63
2024/04/18 08:07:55;;;;;;;1.30;1.00;;;21.20;47.40;;;;;;5424017;26;20007;-64
2024/04/18 08:10:20;;;;;;;2.28;1.30;;;21.20;47.50;;;;;;5428689;26;20085;-64
2024/04/18 08:12:46;;;;;;;1.90;1.05;;;21.30;47.60;;;;;;5432101;26;20412;-64
2024/04/18 08:15:11;;;;;;;2.33;1.20;;;21.20;47.60;;;;;;5423118;26;20015;-64
2024/04/18 08:17:37;;;;;;;2.10;1.20;;;21.20;47.60;;;;;;5423478;26;20375;-64
2024/04/18 08:20:04;;;;;;;2.03;1.30;;;21.30;47.70;;;;;;5428661;26;20002;-63
2024/04/18 08:22:30;;;;;;;2.70;1.20;;;21.30;47.80;;;;;;5426709;26;20727;-64
2024/04/18 08:24:56;;;;;;;2.38;1.20;;;21.20;47.70;;;;;;5428057;26;20768;-64
2024/04/18 08:27:22;;;;;;;2.28;1.30;;;21.20;47.80;;;;;;5426277;26;20003;-64
2024/04/18 08:29:47;;;;;;;2.50;1.40;;;21.30;48.00;;;;;;5425196;26;20125;-64
2024/04/18 08:32:13;;;;;;;2.33;1.40;;;21.20;48.00;;;;;;5429473;26;20000;-63
2024/04/18 08:34:39;;;;;;;2.17;1.30;;;21.20;48.00;;;;;;5427599;26;20003;-64
2024/04/18 08:37:04;;;;;;;2.90;1.60;;;21.20;48.10;;;;;;5424054;26;20176;-63
2024/04/18 08:39:30;;;;;;;2.40;1.38;;;21.30;48.20;;;;;;5427454;26;19998;-64
2024/04/18 08:41:59;;;;;;;2.63;1.42;;;21.30;48.10;;;;;;5430939;26;20079;-64
2024/04/18 08:44:25;;;;;;;2.13;1.27;;;21.30;48.30;;;;;;5428862;26;20471;-64
2024/04/18 08:46:51;;;;;;;2.70;1.42;;;21.20;48.20;;;;;;5427690;26;20280;-64
2024/04/18 08:49:18;;;;;;;2.97;1.30;;;21.30;48.20;;;;;;5424977;26;20035;-62
2024/04/18 08:51:44;;;;;;;1.75;1.15;;;21.30;48.10;;;;;;5429631;26;20175;-63
2024/04/18 08:54:10;;;;;;;2.15;1.30;;;21.20;48.00;;;;;;5427362;26;19999;-63
2024/04/18 08:56:38;;;;;;;2.20;1.40;;;21.30;48.00;;;;;;5424822;26;20439;-63
2024/04/18 08:59:06;;;;;;;1.65;1.10;;;21.20;48.00;;;;;;5429501;26;20039;-62
2024/04/18 09:01:31;;;;;;;2.80;1.38;;;21.20;48.00;;;;;;5427979;26;20443;-62
2024/04/18 09:03:58;;;;;;;1.75;1.20;;;21.20;47.90;;;;;;5428025;26;19995;-62
2024/04/18 09:06:25;;;;;;;3.63;1.70;;;21.20;48.40;;;;;;5425745;26;19999;-62
2024/04/18 09:08:54;;;;;;;2.25;1.42;;;21.20;48.00;;;;;;5422129;26;20019;-62
2024/04/18 09:11:20;;;;;;;1.73;1.20;;;21.20;47.80;;;;;;5423339;26;20009;-62
2024/04/18 09:13:46;;;;;;;2.03;1.23;;;21.20;47.90;;;;;;5431661;26;20005;-62
2024/04/18 09:16:12;;;;;;;2.13;1.30;;;21.20;47.80;;;;;;5427250;26;20111;-62
2024/04/18 09:18:38;;;;;;;2.13;1.38;;;21.20;47.90;;;;;;5425693;26;21065;-62
2024/04/18 09:21:11;;;;;;;1.92;1.30;;;21.20;47.80;;;;;;5424301;26;20071;-61
2024/04/18 09:23:38;;;;;;;2.33;1.30;;;21.20;47.90;;;;;;5425881;26;20130;-62
2024/04/18 09:26:04;;;;;;;2.20;1.40;;;21.20;47.90;;;;;;5429581;26;20047;-61
2024/04/18 09:28:30;;;;;;;2.67;1.40;;;21.20;47.90;;;;;;5425781;26;20452;-62
2024/04/18 09:30:57;;;;;;;1.77;1.30;;;21.20;47.90;;;;;;5429069;26;19995;-62
2024/04/18 09:33:26;;;;;;;2.20;1.50;;;21.20;47.90;;;;;;5424852;26;19995;-62
2024/04/18 09:35:59;;;;;;;1.85;1.20;;;21.20;47.90;;;;;;5428726;26;20011;-62
2024/04/18 09:38:29;;;;;;;2.15;1.30;;;21.20;47.90;;;;;;5421591;26;20448;-61
2024/04/18 09:41:25;;;;;;;2.63;1.23;;;21.20;48.40;;;;;;5427604;26;20012;-62
2024/04/18 09:44:14;;;;;;;2.92;1.30;;;21.20;47.90;;;;;;5429082;26;20367;-61
2024/04/18 09:46:41;;;;;;;;;;;21.20;47.80;;;;;;5424827;26;20015;-61
2024/04/18 09:49:07;;;;;;;2.58;1.50;;;21.20;47.80;;;;;;5425730;26;19985;-62
2024/04/18 09:51:33;;;;;;;2.17;1.35;;;21.20;47.80;;;;;;5424635;26;20010;-61
2024/04/18 09:54:00;;;;;;;1.63;1.15;;;21.20;47.80;;;;;;5422967;26;20015;-62
2024/04/18 09:56:28;;;;;;;2.53;1.35;;;21.20;47.80;;;;;;5428204;26;20012;-61
2024/04/18 09:58:55;;;;;;;2.47;1.30;;;21.20;47.90;;;;;;5428630;26;20006;-64
2024/04/18 10:01:22;;;;;;;2.17;1.30;;;21.20;47.90;;;;;;5434723;26;20477;-64
2024/04/18 10:03:48;;;;;;;2.00;1.30;;;21.20;47.90;;;;;;5428615;26;20035;-63
2024/04/18 10:06:21;;;;;;;2.17;1.30;;;21.20;48.40;;;;;;5427777;26;20404;-63
2024/04/18 10:08:52;;;;;;;2.30;1.25;;;21.20;48.40;;;;;;5429758;26;19999;-63
2024/04/18 10:11:21;;;;;;;2.60;1.30;;;21.20;47.80;;;;;;5437017;26;20447;-64
2024/04/18 10:13:47;;;;;;;2.08;1.20;;;21.20;47.70;;;;;;5429966;26;20041;-63
2024/04/18 10:16:13;;;;;;;2.22;1.30;;;21.20;47.70;;;;;;5430040;26;20010;-63
2024/04/18 10:18:40;;;;;;;2.60;1.25;;;21.20;47.70;;;;;;5434816;26;20439;-63
2024/04/18 10:21:26;;;;;;;2.10;1.30;;;21.20;47.70;;;;;;5431291;26;20035;-63
2024/04/18 10:24:01;;;;;;;2.17;1.33;;;21.20;47.70;;;;;;5427361;26;20148;-64
2024/04/18 10:26:31;;;;;;;2.15;1.25;;;21.20;47.70;;;;;;5430544;26;20439;-64
2024/04/18 10:28:57;;;;;;;2.05;1.20;;;21.20;47.90;;;;;;5432709;26;20014;-64
2024/04/18 10:31:28;;;;;;;1.85;1.20;;;21.20;47.70;;;;;;5433858;26;20013;-64
2024/04/18 10:33:54;;;;;;;2.50;1.35;;;21.20;47.60;;;;;;5427457;26;20090;-64
2024/04/18 10:36:20;;;;;;;2.72;1.42;;;21.20;47.70;;;;;;5429144;26;20034;-63
2024/04/18 10:38:48;;;;;;;3.22;1.40;;;21.20;47.70;;;;;;5426947;26;20508;-63
2024/04/18 10:41:21;;;;;;;4.23;1.47;;;21.20;47.70;;;;;;5426204;26;20002;-64
2024/04/18 10:43:48;;;;;;;2.97;1.30;;;21.20;47.70;;;;;;5443217;26;20243;-64
2024/04/18 10:46:14;;;;;;;2.58;1.35;;;21.20;48.00;;;;;;5427113;26;20018;-64
2024/04/18 10:48:41;;;;;;;3.22;1.45;;;21.30;48.90;;;;;;5443878;26;19999;-64
2024/04/18 10:51:07;;;;;;;3.25;1.30;;;21.30;48.30;;;;;;5430753;26;20336;-64
2024/04/18 10:53:37;;;;;;;4.20;1.30;;;21.30;48.30;;;;;;5424977;26;20600;-64
2024/04/18 10:56:04;;;;;;;3.03;1.30;;;21.30;48.90;;;;;;5429004;26;19999;-64
2024/04/18 10:58:30;;;;;;;2.45;1.13;;;21.30;48.40;;;;;;5430980;26;20475;-64
2024/04/18 11:01:00;;;;;;;2.83;1.30;;;21.40;48.40;;;;;;5425813;26;20014;-64
2024/04/18 11:03:27;;;;;;;2.47;1.23;;;21.40;48.40;;;;;;5429100;26;20003;-63
2024/04/18 11:05:56;;;;;;;2.38;1.20;;;21.40;48.40;;;;;;5433171;26;20015;-64
2024/04/18 11:08:23;;;;;;;2.78;1.48;;;21.40;48.40;;;;;;5427023;26;21072;-63
2024/04/18 11:10:49;;;;;;;1.98;1.08;;;21.40;48.40;;;;;;5430108;26;20488;-62
2024/04/18 11:13:15;;;;;;;2.63;1.33;;;21.40;48.40;;;;;;5426456;26;20114;-62
2024/04/18 11:15:41;;;;;;;2.10;1.10;;;21.40;48.40;;;;;;5430063;26;20028;-63
2024/04/18 11:18:07;;;;;;;2.10;1.10;;;21.40;48.40;;;;;;5428227;26;20019;-63
2024/04/18 11:20:34;;;;;;;1.73;1.02;;;21.50;48.40;;;;;;5425925;26;20010;-60
2024/04/18 11:23:02;;;;;;;2.28;1.17;;;21.50;48.50;;;;;;5424550;26;19999;-61
2024/04/18 11:25:28;;;;;;;2.20;1.27;;;21.50;48.50;;;;;;5421877;26;20026;-62
2024/04/18 11:27:55;;;;;;;2.88;1.20;;;21.50;48.50;;;;;;5433006;26;20443;-61
2024/04/18 11:30:22;;;;;;;3.35;1.70;;;21.50;48.50;;;;;;5430022;26;20015;-60
2024/04/18 11:32:54;;;;;;;2.97;1.55;;;21.50;48.50;;;;;;5431772;26;20003;-60
2024/04/18 11:35:21;;;;;;;3.50;1.40;;;21.50;48.80;;;;;;5424710;26;20501;-61
2024/04/18 11:37:47;;;;;;;4.13;1.30;;;21.50;49.60;;;;;;5431450;26;20027;-61
2024/04/18 11:40:14;;;;;;;4.60;1.45;;;21.50;49.80;;;;;;5430798;26;19999;-60
2024/04/18 11:42:40;;;;;;;2.40;1.10;;;21.60;50.00;;;;;;5426223;26;20443;-61
2024/04/18 11:45:06;;;;;;;1.70;1.08;;;21.60;50.10;;;;;;5424715;26;20697;-62
2024/04/18 11:47:33;;;;;;;2.15;1.13;;;21.60;50.00;;;;;;5427200;26;20007;-61
2024/04/18 11:49:59;;;;;;;3.45;1.17;;;21.70;49.80;;;;;;5430729;26;20507;-62
2024/04/18 11:52:24;;;;;;;2.70;1.20;;;21.70;49.60;;;;;;5430758;26;20037;-61
2024/04/18 11:54:51;;;;;;;3.70;1.30;;;21.70;49.40;;;;;;5424885;26;20003;-61
2024/04/18 11:57:17;;;;;;;2.63;1.20;;;21.70;49.30;;;;;;5429227;26;20056;-61
2024/04/18 11:59:43;;;;;;;2.47;1.20;;;21.80;49.40;;;;;;5432149;26;20034;-62
2024/04/18 12:02:10;;;;;;;3.92;1.33;;;21.80;49.30;;;;;;5431260;26;20003;-62
2024/04/18 12:04:35;;;;;;;2.15;1.20;;;21.90;49.20;;;;;;5431638;26;20006;-62
2024/04/18 12:07:02;;;;;;;2.88;1.58;;;21.90;49.20;;;;;;5426482;26;20365;-61
2024/04/18 12:09:28;;;;;;;2.50;1.13;;;21.90;49.10;;;;;;5427142;26;19991;-62
2024/04/18 12:11:53;;;;;;;2.88;1.30;;;22.00;49.00;;;;;;5425040;26;19996;-62
2024/04/18 12:14:19;;;;;;;2.90;1.33;;;22.00;48.90;;;;;;5428761;26;20435;-61
2024/04/18 12:16:44;;;;;;;2.97;1.30;;;22.00;48.80;;;;;;5427815;26;20089;-61
2024/04/18 12:19:10;;;;;;;3.00;1.40;;;22.00;48.70;;;;;;5426933;26;20448;-64
2024/04/18 12:21:36;;;;;;;2.70;1.40;;;22.10;48.80;;;;;;5424649;26;19995;-63
2024/04/18 12:24:01;;;;;;;3.63;1.40;;;22.10;48.60;;;;;;5426942;26;20005;-63
2024/04/18 12:26:28;;;;;;;2.67;1.30;;;22.10;48.60;;;;;;5428584;26;20066;-63
2024/04/18 12:28:54;;;;;;;2.47;1.13;;;22.10;48.50;;;;;;5423273;26;20410;-64
2024/04/18 12:31:20;;;;;;;2.67;1.20;;;22.20;48.40;;;;;;5429501;26;20003;-64
2024/04/18 12:33:46;;;;;;;3.33;1.25;;;22.10;48.30;;;;;;5430764;26;20466;-64
2024/04/18 12:36:13;;;;;;;2.88;1.30;;;22.20;48.30;;;;;;5442430;26;20030;-65
2024/04/18 12:38:39;;;;;;;2.28;1.10;;;22.20;48.30;;;;;;5429456;26;20007;-64
2024/04/18 12:41:05;;;;;;;2.40;1.10;;;22.20;48.20;;;;;;5424415;26;20504;-64
2024/04/18 12:43:30;;;;;;;2.22;1.00;;;22.20;48.20;;;;;;5425340;26;20132;-64
2024/04/18 12:46:00;;;;;;;2.97;1.38;;;22.20;48.10;;;;;;5426102;26;20009;-65